createdAt,value
2023-01-29T00:01:44.974Z,18.83
2023-01-29T00:04:09.845Z,20.00
2023-01-29T00:06:34.559Z,21.98
2023-01-29T00:08:59.171Z,23.88
2023-01-29T00:11:24.410Z,23.25
2023-01-29T00:13:50.141Z,20.73
2023-01-29T00:16:16.540Z,21.52
2023-01-29T00:18:42.175Z,20.60
2023-01-29T00:21:10.720Z,21.85
2023-01-29T00:23:35.139Z,21.77
2023-01-29T00:26:01.857Z,19.92
2023-01-29T00:28:26.742Z,20.05
2023-01-29T00:30:51.271Z,19.42
2023-01-29T00:33:17.422Z,19.45
2023-01-29T00:35:42.902Z,17.92
2023-01-29T00:38:07.583Z,18.85
2023-01-29T00:40:52.281Z,18.25
2023-01-29T00:43:34.322Z,17.17
2023-01-29T00:45:59.023Z,17.60
2023-01-29T00:48:24.979Z,19.30
2023-01-29T00:50:49.590Z,18.05
2023-01-29T00:53:14.273Z,19.40
2023-01-29T00:55:38.976Z,19.48
2023-01-29T00:58:03.379Z,18.65
2023-01-29T01:00:28.231Z,20.98
2023-01-29T01:03:06.690Z,19.83
2023-01-29T01:05:33.848Z,19.77
2023-01-29T01:07:59.913Z,19.20
2023-01-29T01:10:25.623Z,20.40
2023-01-29T01:12:52.603Z,19.42
2023-01-29T01:15:17.738Z,21.52
2023-01-29T01:17:42.248Z,20.60
2023-01-29T01:20:07.599Z,20.50
2023-01-29T01:22:33.899Z,20.13
2023-01-29T01:24:58.614Z,20.92
2023-01-29T01:27:23.171Z,21.50
2023-01-29T01:29:47.929Z,18.90
2023-01-29T01:32:12.502Z,21.98
2023-01-29T01:34:37.177Z,20.58
2023-01-29T01:37:01.877Z,21.42
2023-01-29T01:39:28.221Z,21.10
2023-01-29T01:41:53.817Z,21.58
2023-01-29T01:44:57.000Z,23.13
2023-01-29T01:47:26.470Z,22.05
2023-01-29T01:49:51.365Z,24.58
2023-01-29T01:52:17.904Z,25.50
2023-01-29T01:54:45.739Z,24.77
2023-01-29T01:57:16.072Z,21.13
2023-01-29T01:59:42.477Z,23.48
2023-01-29T02:02:25.801Z,23.20
2023-01-29T02:05:08.745Z,22.50
2023-01-29T02:07:51.183Z,23.50
2023-01-29T02:10:19.790Z,22.38
2023-01-29T02:12:46.563Z,22.58
2023-01-29T02:15:14.471Z,22.83
2023-01-29T02:17:39.627Z,21.48
2023-01-29T02:20:13.603Z,23.33
2023-01-29T02:22:55.175Z,22.42
2023-01-29T02:26:00.533Z,22.45
2023-01-29T02:28:36.530Z,21.73
2023-01-29T02:31:10.548Z,21.05
2023-01-29T02:33:48.477Z,21.80
2023-01-29T02:36:23.704Z,21.85
2023-01-29T02:38:59.471Z,22.67
2023-01-29T02:41:28.684Z,21.00
2023-01-29T02:44:00.557Z,22.23
2023-01-29T02:46:34.346Z,22.15
2023-01-29T02:49:10.074Z,23.20
2023-01-29T02:51:38.444Z,22.38
2023-01-29T02:54:08.850Z,22.88
2023-01-29T02:56:39.103Z,20.65
2023-01-29T02:59:11.739Z,20.88
2023-01-29T03:01:42.201Z,22.05
2023-01-29T03:04:10.941Z,22.05
2023-01-29T03:06:39.655Z,21.85
2023-01-29T03:09:08.392Z,22.38
2023-01-29T03:11:38.322Z,23.15
2023-01-29T03:14:10.588Z,21.70
2023-01-29T03:16:39.612Z,20.52
2023-01-29T03:19:07.828Z,20.92
2023-01-29T03:21:53.424Z,20.13
2023-01-29T03:24:41.494Z,21.35
2023-01-29T03:27:27.728Z,21.77
2023-01-29T03:30:15.963Z,22.67
2023-01-29T03:32:56.866Z,20.98
2023-01-29T03:35:35.585Z,20.05
2023-01-29T03:38:04.057Z,21.83
2023-01-29T03:40:30.768Z,19.02
2023-01-29T03:43:06.693Z,20.00
2023-01-29T03:45:51.025Z,19.75
2023-01-29T03:48:38.620Z,20.20
2023-01-29T03:51:15.920Z,19.50
2023-01-29T03:53:49.301Z,18.33
2023-01-29T03:56:24.140Z,17.58
2023-01-29T03:58:55.620Z,17.40
2023-01-29T04:01:33.407Z,15.68
2023-01-29T04:04:03.444Z,15.15
2023-01-29T04:06:33.007Z,13.20
2023-01-29T04:09:07.897Z,14.32
2023-01-29T04:11:39.591Z,11.15
2023-01-29T04:14:05.720Z,10.75
2023-01-29T04:16:37.732Z,9.48
2023-01-29T04:19:48.036Z,9.43
2023-01-29T04:22:15.761Z,9.20
2023-01-29T04:24:41.292Z,10.95
2023-01-29T04:27:22.511Z,10.75
2023-01-29T04:29:59.389Z,9.88
2023-01-29T04:32:32.669Z,10.65
2023-01-29T04:35:04.235Z,10.52
2023-01-29T04:37:39.168Z,10.05
2023-01-29T04:40:12.384Z,10.18
2023-01-29T04:42:44.819Z,11.07
2023-01-29T04:45:18.357Z,11.05
2023-01-29T04:47:52.413Z,10.95
2023-01-29T04:50:23.536Z,12.75
2023-01-29T04:52:58.186Z,10.77
2023-01-29T04:55:30.343Z,11.18
2023-01-29T04:58:03.640Z,11.80
2023-01-29T05:00:32.419Z,11.32
2023-01-29T05:02:58.817Z,10.90
2023-01-29T05:05:23.592Z,12.80
2023-01-29T05:07:49.259Z,12.05
2023-01-29T05:10:17.164Z,13.52
2023-01-29T05:12:44.279Z,12.40
2023-01-29T05:15:13.759Z,13.10
2023-01-29T05:17:38.330Z,12.40
2023-01-29T05:20:05.178Z,12.40
2023-01-29T05:22:30.707Z,13.23
2023-01-29T05:24:55.310Z,13.80
2023-01-29T05:27:39.724Z,13.35
2023-01-29T05:30:04.754Z,13.15
2023-01-29T05:32:29.211Z,14.07
2023-01-29T05:34:53.850Z,13.05
2023-01-29T05:37:19.861Z,13.13
2023-01-29T05:39:44.605Z,14.63
2023-01-29T05:42:09.320Z,14.55
2023-01-29T05:44:34.240Z,14.45
2023-01-29T05:46:58.733Z,14.52
2023-01-29T05:49:23.561Z,14.18
2023-01-29T05:51:48.154Z,14.68
2023-01-29T05:54:15.023Z,13.90
2023-01-29T05:56:39.667Z,13.15
2023-01-29T05:59:04.715Z,14.55
2023-01-29T06:01:29.523Z,12.98
2023-01-29T06:03:54.179Z,13.38
2023-01-29T06:06:19.080Z,13.27
2023-01-29T06:08:44.106Z,13.10
2023-01-29T06:11:12.648Z,13.73
2023-01-29T06:13:37.641Z,14.25
2023-01-29T06:16:02.199Z,14.82
2023-01-29T06:18:27.249Z,13.55
2023-01-29T06:20:51.911Z,15.02
2023-01-29T06:23:16.869Z,14.93
2023-01-29T06:25:41.608Z,15.00
2023-01-29T06:28:08.328Z,14.48
2023-01-29T06:30:33.109Z,14.20
2023-01-29T06:32:58.932Z,15.50
2023-01-29T06:35:23.848Z,15.88
2023-01-29T06:37:48.381Z,15.38
2023-01-29T06:40:14.099Z,14.43
2023-01-29T06:42:38.954Z,14.73
2023-01-29T06:45:06.695Z,15.48
2023-01-29T06:47:31.329Z,14.55
2023-01-29T06:49:56.179Z,15.25
2023-01-29T06:52:23.905Z,13.68
2023-01-29T06:54:52.383Z,14.38
2023-01-29T06:57:17.061Z,14.27
2023-01-29T06:59:41.675Z,15.60
2023-01-29T07:02:07.688Z,14.40
2023-01-29T07:04:32.486Z,15.20
2023-01-29T07:06:57.019Z,15.40
2023-01-29T07:09:21.847Z,14.55
2023-01-29T07:11:46.262Z,13.90
2023-01-29T07:14:11.057Z,14.27
2023-01-29T07:16:35.620Z,12.07
2023-01-29T07:19:02.647Z,12.82
2023-01-29T07:21:27.341Z,12.85
2023-01-29T07:23:52.327Z,11.73
2023-01-29T07:26:17.267Z,11.82
2023-01-29T07:28:45.989Z,12.45
2023-01-29T07:31:14.953Z,12.38
2023-01-29T07:33:39.713Z,12.23
2023-01-29T07:36:09.363Z,11.73
2023-01-29T07:38:34.723Z,11.45
2023-01-29T07:40:59.226Z,11.00
2023-01-29T07:43:25.495Z,11.95
2023-01-29T07:45:50.228Z,12.65
2023-01-29T07:48:14.935Z,11.18
2023-01-29T07:50:40.726Z,11.13
2023-01-29T07:53:06.932Z,11.25
2023-01-29T07:55:31.668Z,11.55
2023-01-29T07:58:00.532Z,10.93
2023-01-29T08:00:25.483Z,12.25
2023-01-29T08:02:49.998Z,10.75
2023-01-29T08:05:14.746Z,12.50
2023-01-29T08:07:39.530Z,12.50
2023-01-29T08:10:06.236Z,12.77
2023-01-29T08:12:31.059Z,12.35
2023-01-29T08:14:55.876Z,12.10
2023-01-29T08:17:20.768Z,12.75
2023-01-29T08:19:52.793Z,12.88
2023-01-29T08:22:17.887Z,12.60
2023-01-29T08:24:53.672Z,11.90
2023-01-29T08:27:26.098Z,12.57
2023-01-29T08:29:50.905Z,12.40
2023-01-29T08:32:15.644Z,13.45
2023-01-29T08:34:40.109Z,11.65
2023-01-29T08:37:04.885Z,14.35
2023-01-29T08:39:29.781Z,14.48
2023-01-29T08:41:54.511Z,14.20
2023-01-29T08:44:20.489Z,15.98
2023-01-29T08:46:45.296Z,15.10
2023-01-29T08:49:11.297Z,13.13
2023-01-29T08:51:36.057Z,12.85
2023-01-29T08:54:00.848Z,14.45
2023-01-29T08:56:25.325Z,12.50
2023-01-29T08:58:49.759Z,14.20
2023-01-29T09:01:16.316Z,13.57
2023-01-29T09:03:43.792Z,13.32
2023-01-29T09:06:10.395Z,13.45
2023-01-29T09:08:35.092Z,13.88
2023-01-29T09:11:00.927Z,14.93
2023-01-29T09:13:25.494Z,13.75
2023-01-29T09:15:49.972Z,15.18
2023-01-29T09:18:16.154Z,13.02
2023-01-29T09:20:40.943Z,13.60
2023-01-29T09:23:07.397Z,13.27
2023-01-29T09:25:32.131Z,13.38
2023-01-29T09:27:56.787Z,12.15
2023-01-29T09:30:21.918Z,13.25
2023-01-29T09:32:54.666Z,12.60
2023-01-29T09:35:21.707Z,13.40
2023-01-29T09:37:49.452Z,13.70
2023-01-29T09:40:27.933Z,15.00
2023-01-29T09:42:57.222Z,13.77
2023-01-29T09:45:26.115Z,14.45
2023-01-29T09:47:52.626Z,13.90
2023-01-29T09:50:23.410Z,14.18
2023-01-29T09:52:52.768Z,14.15
2023-01-29T09:55:25.321Z,13.70
2023-01-29T09:57:53.485Z,13.98
2023-01-29T10:00:24.750Z,12.13
2023-01-29T10:03:17.061Z,12.10
2023-01-29T10:06:06.505Z,13.38
2023-01-29T10:08:52.139Z,12.43
2023-01-29T10:11:31.923Z,12.90
2023-01-29T10:14:09.692Z,13.48
2023-01-29T10:16:48.266Z,11.80
2023-01-29T10:19:58.401Z,12.88
2023-01-29T10:25:16.319Z,12.87
2023-01-29T10:27:52.070Z,13.10
2023-01-29T10:30:29.500Z,13.90
2023-01-29T10:32:56.012Z,13.90
2023-01-29T10:35:26.713Z,15.57
2023-01-29T10:37:55.993Z,16.70
2023-01-29T10:40:23.148Z,17.83
2023-01-29T10:42:52.151Z,18.45
2023-01-29T10:45:29.398Z,17.35
2023-01-29T10:48:31.385Z,18.73
2023-01-29T10:51:03.553Z,20.65
2023-01-29T10:53:41.348Z,19.75
2023-01-29T10:56:24.380Z,20.02
2023-01-29T10:58:52.656Z,20.88
2023-01-29T11:01:17.749Z,21.67
2023-01-29T11:03:43.148Z,20.50
2023-01-29T11:06:14.817Z,22.52
2023-01-29T11:08:47.976Z,21.40
2023-01-29T11:11:17.461Z,22.58
2023-01-29T11:13:44.971Z,21.63
2023-01-29T11:16:11.247Z,22.45
2023-01-29T11:18:51.645Z,22.83
2023-01-29T11:21:16.327Z,24.85
2023-01-29T11:23:42.523Z,24.45
2023-01-29T11:26:09.567Z,25.10
2023-01-29T11:28:39.082Z,26.35
2023-01-29T11:31:04.132Z,25.83
2023-01-29T11:33:30.067Z,26.27
2023-01-29T11:35:55.880Z,25.77
2023-01-29T11:38:25.996Z,24.75
2023-01-29T11:40:52.785Z,24.88
2023-01-29T11:43:30.132Z,25.17
2023-01-29T11:45:57.480Z,24.98
2023-01-29T11:48:24.273Z,23.27
2023-01-29T11:50:55.033Z,23.13
2023-01-29T11:53:38.871Z,22.23
2023-01-29T11:56:08.735Z,24.67
2023-01-29T12:01:01.477Z,21.92
2023-01-29T12:03:34.634Z,22.83
2023-01-29T12:06:04.783Z,24.08
2023-01-29T12:08:35.211Z,25.10
2023-01-29T12:11:12.700Z,23.10
2023-01-29T12:13:37.763Z,23.73
2023-01-29T12:16:23.618Z,25.13
2023-01-29T12:18:54.621Z,26.98
2023-01-29T12:21:24.279Z,26.02
2023-01-29T12:23:55.427Z,26.85
2023-01-29T12:26:28.921Z,28.23
2023-01-29T12:29:06.753Z,30.33
2023-01-29T12:31:38.182Z,29.00
2023-01-29T12:34:12.350Z,27.25
2023-01-29T12:36:43.234Z,27.08
2023-01-29T12:39:07.980Z,26.40
2023-01-29T12:41:41.249Z,26.75
2023-01-29T12:44:14.073Z,28.80
2023-01-29T12:46:43.082Z,29.40
2023-01-29T12:49:17.049Z,29.27
2023-01-29T12:51:50.253Z,28.95
2023-01-29T12:54:19.070Z,29.63
2023-01-29T12:56:48.659Z,29.10
2023-01-29T12:59:20.700Z,29.17
2023-01-29T13:01:50.943Z,28.08
2023-01-29T13:04:24.139Z,26.98
2023-01-29T13:06:56.224Z,26.05
2023-01-29T13:09:40.720Z,29.05
2023-01-29T13:12:16.020Z,30.05
2023-01-29T13:14:46.950Z,28.70
2023-01-29T13:17:15.520Z,26.52
2023-01-29T13:19:43.701Z,28.77
2023-01-29T13:22:17.460Z,27.23
2023-01-29T13:24:47.822Z,26.88
2023-01-29T13:27:26.658Z,28.58
2023-01-29T13:29:51.359Z,28.02
2023-01-29T13:32:23.247Z,26.45
2023-01-29T13:34:49.559Z,27.77
2023-01-29T13:37:21.221Z,28.08
2023-01-29T13:39:50.300Z,28.30
2023-01-29T13:42:20.870Z,26.08
2023-01-29T13:44:50.487Z,28.77
2023-01-29T13:47:25.452Z,27.73
2023-01-29T13:49:57.662Z,28.08
2023-01-29T13:52:30.803Z,27.63
2023-01-29T13:54:59.039Z,29.92
2023-01-29T13:57:55.955Z,28.33
2023-01-29T14:00:51.435Z,28.65
2023-01-29T14:04:09.939Z,26.23
2023-01-29T14:06:52.756Z,26.60
2023-01-29T14:10:02.540Z,27.98
2023-01-29T14:12:44.801Z,26.58
2023-01-29T14:15:26.152Z,26.55
2023-01-29T14:18:14.983Z,27.08
2023-01-29T14:20:45.833Z,28.25
2023-01-29T14:23:24.166Z,29.83
2023-01-29T14:25:48.918Z,28.38
2023-01-29T14:28:21.437Z,30.58
2023-01-29T14:30:49.982Z,30.23
2023-01-29T14:33:34.649Z,33.33
2023-01-29T14:36:00.352Z,32.10
2023-01-29T14:38:26.519Z,32.58
2023-01-29T14:40:51.635Z,30.77
2023-01-29T14:43:20.947Z,30.45
2023-01-29T14:45:45.829Z,29.75
2023-01-29T14:48:39.385Z,26.63
2023-01-29T14:51:10.968Z,24.83
2023-01-29T14:53:56.233Z,25.08
2023-01-29T14:56:27.580Z,27.15
2023-01-29T14:58:57.224Z,25.55
2023-01-29T15:01:27.178Z,28.08
2023-01-29T15:06:24.571Z,27.63
2023-01-29T15:08:56.183Z,29.27
2023-01-29T15:11:36.893Z,28.67
2023-01-29T15:14:11.384Z,28.75
2023-01-29T15:16:47.529Z,30.13
2023-01-29T15:19:19.752Z,28.83
2023-01-29T15:22:10.191Z,30.35
2023-01-29T15:24:35.074Z,30.08
2023-01-29T15:26:59.721Z,30.35
2023-01-29T15:29:27.258Z,30.80
2023-01-29T15:31:52.138Z,31.40
2023-01-29T15:34:19.173Z,32.17
2023-01-29T15:36:44.226Z,32.72
2023-01-29T15:39:18.892Z,32.60
2023-01-29T15:41:43.978Z,32.03
2023-01-29T15:44:16.379Z,30.73
2023-01-29T15:46:43.796Z,32.05
2023-01-29T15:49:11.155Z,32.53
2023-01-29T15:51:37.781Z,32.55
2023-01-29T15:54:05.080Z,32.78
2023-01-29T15:56:34.752Z,32.17
2023-01-29T15:59:04.007Z,30.77
2023-01-29T16:01:31.323Z,31.88
2023-01-29T16:03:59.077Z,31.35
2023-01-29T16:06:24.574Z,32.25
2023-01-29T16:08:55.386Z,32.03
2023-01-29T16:11:20.973Z,31.88
2023-01-29T16:13:47.598Z,33.72
2023-01-29T16:16:23.378Z,33.53
2023-01-29T16:18:59.866Z,32.58
2023-01-29T16:21:28.937Z,33.03
2023-01-29T16:23:58.195Z,31.13
2023-01-29T16:26:26.267Z,34.85
2023-01-29T16:28:51.007Z,33.60
2023-01-29T16:31:23.066Z,34.13
2023-01-29T16:33:49.812Z,33.22
2023-01-29T16:36:19.770Z,33.38
2023-01-29T16:38:49.388Z,32.35
2023-01-29T16:41:31.126Z,33.05
2023-01-29T16:43:57.732Z,32.08
2023-01-29T16:46:26.685Z,30.85
2023-01-29T16:48:51.580Z,32.27
2023-01-29T16:51:22.489Z,31.88
2023-01-29T16:54:04.740Z,31.98
2023-01-29T16:56:34.435Z,34.53
2023-01-29T16:58:59.894Z,32.67
2023-01-29T17:01:28.955Z,32.75
2023-01-29T17:04:02.720Z,34.97
2023-01-29T17:06:29.029Z,34.60
2023-01-29T17:08:54.054Z,38.10
2023-01-29T17:11:27.799Z,39.55
2023-01-29T17:13:58.079Z,40.60
2023-01-29T17:16:31.683Z,40.25
2023-01-29T17:18:56.925Z,40.30
2023-01-29T17:21:21.849Z,40.40
2023-01-29T17:23:46.524Z,38.70
2023-01-29T17:26:15.438Z,40.30
2023-01-29T17:28:40.397Z,38.83
2023-01-29T17:31:07.481Z,37.20
2023-01-29T17:33:32.187Z,38.13
2023-01-29T17:35:57.044Z,38.97
2023-01-29T17:38:26.443Z,37.38
2023-01-29T17:40:55.482Z,37.80
2023-01-29T17:43:20.031Z,35.22
2023-01-29T17:45:44.971Z,35.65
2023-01-29T17:48:16.320Z,34.58
2023-01-29T17:50:42.320Z,35.15
2023-01-29T17:53:06.816Z,33.45
2023-01-29T17:55:31.933Z,30.50
2023-01-29T17:57:56.413Z,30.38
2023-01-29T18:00:22.778Z,32.42
2023-01-29T18:02:47.563Z,35.83
2023-01-29T18:05:14.939Z,34.95
2023-01-29T18:07:40.326Z,35.15
2023-01-29T18:10:05.261Z,37.20
2023-01-29T18:12:30.118Z,37.60
2023-01-29T18:14:54.849Z,37.90
2023-01-29T18:17:22.509Z,37.17
2023-01-29T18:19:47.356Z,38.50
2023-01-29T18:22:14.200Z,36.00
2023-01-29T18:24:38.777Z,31.83
2023-01-29T18:27:03.418Z,30.02
2023-01-29T18:29:30.416Z,29.23
2023-01-29T18:31:55.030Z,23.58
2023-01-29T18:34:19.574Z,21.50
2023-01-29T18:36:47.136Z,20.20
2023-01-29T18:39:14.006Z,17.88
2023-01-29T18:41:38.686Z,17.05
2023-01-29T18:44:03.273Z,17.13
2023-01-29T18:46:28.045Z,18.58
2023-01-29T18:48:52.735Z,22.60
2023-01-29T18:51:17.282Z,22.20
2023-01-29T18:53:41.977Z,23.27
2023-01-29T18:56:09.207Z,20.73
2023-01-29T18:58:35.924Z,19.75
2023-01-29T19:01:00.876Z,21.10
2023-01-29T19:03:25.636Z,21.55
2023-01-29T19:05:50.172Z,19.02
2023-01-29T19:08:14.845Z,20.65
2023-01-29T19:10:40.674Z,20.67
2023-01-29T19:13:06.796Z,20.05
2023-01-29T19:15:31.477Z,20.48
2023-01-29T19:17:56.314Z,19.02
2023-01-29T19:20:21.332Z,19.52
2023-01-29T19:22:46.874Z,18.48
2023-01-29T19:25:12.880Z,17.13
2023-01-29T19:27:37.438Z,17.65
2023-01-29T19:30:05.840Z,16.35
2023-01-29T19:32:30.577Z,17.10
2023-01-29T19:34:55.114Z,19.95
2023-01-29T19:37:19.806Z,17.50
2023-01-29T19:39:44.315Z,17.58
2023-01-29T19:42:09.375Z,15.82
2023-01-29T19:44:33.921Z,16.38
2023-01-29T19:46:59.944Z,16.25
2023-01-29T19:49:26.509Z,17.63
2023-01-29T19:51:51.220Z,14.65
2023-01-29T19:54:15.780Z,15.10
2023-01-29T19:56:40.742Z,17.80
2023-01-29T19:59:07.448Z,18.83
2023-01-29T20:01:32.089Z,18.52
2023-01-29T20:03:58.886Z,19.17
2023-01-29T20:06:26.631Z,21.58
2023-01-29T20:08:51.387Z,16.83
2023-01-29T20:11:16.878Z,21.80
2023-01-29T20:13:41.885Z,19.75
2023-01-29T20:16:07.466Z,23.52
2023-01-29T20:18:32.137Z,21.20
2023-01-29T20:20:59.945Z,20.67
2023-01-29T20:23:37.252Z,20.95
2023-01-29T20:26:03.461Z,22.75
2023-01-29T20:28:28.161Z,20.55
2023-01-29T20:30:55.579Z,19.50
2023-01-29T20:33:20.215Z,19.88
2023-01-29T20:35:45.082Z,16.08
2023-01-29T20:38:11.319Z,17.67
2023-01-29T20:40:36.485Z,14.57
2023-01-29T20:43:01.079Z,21.70
2023-01-29T20:45:25.841Z,17.00
2023-01-29T20:47:51.219Z,19.60
2023-01-29T20:50:18.879Z,20.17
2023-01-29T20:52:44.260Z,20.33
2023-01-29T20:55:13.463Z,20.67
2023-01-29T20:57:38.567Z,18.40
2023-01-29T21:00:03.596Z,21.60
2023-01-29T21:02:28.531Z,21.45
2023-01-29T21:04:53.133Z,20.92
2023-01-29T21:07:17.978Z,20.67
2023-01-29T21:09:43.213Z,20.75
2023-01-29T21:12:09.405Z,21.52
2023-01-29T21:14:34.354Z,19.77
2023-01-29T21:16:59.124Z,22.35
2023-01-29T21:19:23.570Z,20.35
2023-01-29T21:21:48.138Z,21.60
2023-01-29T21:24:13.247Z,20.00
2023-01-29T21:26:39.387Z,22.20
2023-01-29T21:29:05.647Z,19.45
2023-01-29T21:31:30.309Z,20.95
2023-01-29T21:33:54.937Z,17.92
2023-01-29T21:36:22.450Z,19.48
2023-01-29T21:38:47.303Z,20.00
2023-01-29T21:41:12.482Z,19.58
2023-01-29T21:43:36.401Z,20.48
2023-01-29T21:46:05.292Z,20.38
2023-01-29T21:48:29.851Z,21.27
2023-01-29T21:50:54.843Z,18.67
2023-01-29T21:53:19.388Z,17.90
2023-01-29T21:55:44.391Z,19.42
2023-01-29T21:58:09.252Z,18.75
2023-01-29T22:00:33.989Z,17.27
2023-01-29T22:03:00.383Z,15.98
2023-01-29T22:05:26.595Z,17.50
2023-01-29T22:07:51.922Z,17.42
2023-01-29T22:10:18.119Z,17.20
2023-01-29T22:12:43.879Z,16.60
2023-01-29T22:15:09.938Z,18.00
2023-01-29T22:17:35.401Z,16.70
2023-01-29T22:20:01.465Z,15.98
2023-01-29T22:22:27.313Z,18.10
2023-01-29T22:24:52.733Z,19.05
2023-01-29T22:27:17.545Z,18.60
2023-01-29T22:29:42.059Z,17.63
2023-01-29T22:32:07.857Z,18.20
2023-01-29T22:34:32.620Z,17.60
2023-01-29T22:36:58.600Z,17.58
2023-01-29T22:39:23.335Z,17.95
2023-01-29T22:41:48.264Z,16.40
2023-01-29T22:44:13.013Z,17.20
2023-01-29T22:46:37.530Z,16.85
2023-01-29T22:49:02.389Z,15.68
2023-01-29T22:51:26.998Z,16.83
2023-01-29T22:53:54.784Z,14.05
2023-01-29T22:56:20.482Z,16.38
2023-01-29T22:58:45.587Z,15.93
2023-01-29T23:01:10.435Z,17.63
2023-01-29T23:03:35.476Z,16.95
2023-01-29T23:05:59.936Z,17.48
2023-01-29T23:08:24.659Z,16.17
2023-01-29T23:10:52.884Z,15.13
2023-01-29T23:13:17.954Z,15.55
2023-01-29T23:15:42.673Z,15.73
2023-01-29T23:18:07.502Z,16.05
2023-01-29T23:20:32.159Z,16.73
2023-01-29T23:22:57.071Z,17.17
2023-01-29T23:25:21.570Z,16.52
2023-01-29T23:27:46.964Z,17.15
2023-01-29T23:30:12.915Z,18.20
2023-01-29T23:32:37.975Z,17.02
2023-01-29T23:35:02.646Z,17.52
2023-01-29T23:37:27.762Z,17.90
2023-01-29T23:39:52.815Z,16.13
2023-01-29T23:42:17.402Z,17.30
2023-01-29T23:44:43.458Z,19.15
2023-01-29T23:47:08.357Z,18.52
2023-01-29T23:49:33.194Z,17.77
2023-01-29T23:51:57.735Z,18.17
2023-01-29T23:54:22.274Z,17.65
2023-01-29T23:56:47.296Z,15.57
2023-01-29T23:59:12.008Z,15.95
